Time;durP1;ratioP1;P1;durP2;ratioP2;P2;SDS_P1;SDS_P2;PMS_P1;PMS_P2;Temp;Humidity;BMP_temperature;BMP_pressure;BME280_temperature;BME280_humidity;BME280_pressure;Samples;Min_cycle;Max_cycle;Signal;HPM_P1;HPM_P2
2022/12/18 00:01:23;;;;;;;251.07;82.87;;;-4.00;99.90;;;;;;5050520;28;20382;-75
2022/12/18 00:03:50;;;;;;;256.13;83.50;;;-4.00;99.90;;;;;;5049634;28;20288;-74
2022/12/18 00:06:16;;;;;;;254.80;91.80;;;-4.00;99.90;;;;;;5041542;28;20049;-82
2022/12/18 00:08:43;;;;;;;253.00;80.13;;;-4.00;99.90;;;;;;5046155;28;20307;-74
2022/12/18 00:11:12;;;;;;;243.37;86.47;;;-3.90;99.90;;;;;;5034384;28;20395;-74
2022/12/18 00:13:38;;;;;;;250.60;83.43;;;-4.00;99.90;;;;;;5049151;28;20057;-75
2022/12/18 00:16:06;;;;;;;225.33;73.30;;;-4.00;99.90;;;;;;5051242;28;20052;-75
2022/12/18 00:18:32;;;;;;;238.03;77.03;;;-4.00;99.90;;;;;;5037471;28;20048;-74
2022/12/18 00:21:04;;;;;;;231.77;78.00;;;-4.10;99.90;;;;;;5034071;28;20159;-74
2022/12/18 00:23:30;;;;;;;232.27;77.10;;;-3.80;99.90;;;;;;5050609;28;20044;-77
2022/12/18 00:26:00;;;;;;;249.93;80.77;;;-4.10;99.90;;;;;;5050230;28;20044;-75
2022/12/18 00:28:26;;;;;;;263.00;87.10;;;-4.00;99.90;;;;;;5034793;28;20452;-75
2022/12/18 00:31:01;;;;;;;269.33;96.10;;;-4.00;99.90;;;;;;5051431;28;20048;-75
2022/12/18 00:33:27;;;;;;;255.20;86.20;;;-4.00;99.90;;;;;;5050339;28;20088;-74
2022/12/18 00:35:53;;;;;;;275.57;87.90;;;-4.00;99.90;;;;;;5050021;28;20064;-74
2022/12/18 00:38:18;;;;;;;251.63;84.43;;;-4.10;99.90;;;;;;5034061;28;20707;-79
2022/12/18 00:40:44;;;;;;;240.63;76.60;;;-4.00;99.90;;;;;;5051223;28;20078;-74
2022/12/18 00:43:09;;;;;;;253.57;84.93;;;-4.10;99.90;;;;;;5050255;28;20068;-74
2022/12/18 00:45:35;;;;;;;218.27;76.73;;;-4.10;99.90;;;;;;5049383;28;20056;-75
2022/12/18 00:48:02;;;;;;;219.80;74.73;;;-4.10;99.90;;;;;;5035643;28;20458;-75
2022/12/18 00:50:27;;;;;;;234.43;82.47;;;-4.20;99.90;;;;;;5050853;28;20048;-74
2022/12/18 00:52:53;;;;;;;210.90;73.40;;;-4.30;99.90;;;;;;5048868;28;20059;-76
2022/12/18 00:55:19;;;;;;;202.00;64.40;;;-4.30;99.90;;;;;;5050673;28;20047;-76
2022/12/18 00:57:44;;;;;;;214.27;70.97;;;-4.30;99.90;;;;;;5033450;28;20120;-75
2022/12/18 01:00:14;;;;;;;212.60;72.50;;;-4.30;99.90;;;;;;5050216;28;20053;-75
2022/12/18 01:02:40;;;;;;;217.73;73.77;;;-4.40;99.90;;;;;;5048920;28;20490;-74
2022/12/18 01:05:06;;;;;;;230.07;77.97;;;-4.40;99.90;;;;;;5049097;28;20268;-75
2022/12/18 01:07:32;;;;;;;208.23;67.50;;;-4.40;99.90;;;;;;5034678;28;20044;-74
2022/12/18 01:09:58;;;;;;;202.33;71.10;;;-4.40;99.90;;;;;;5050488;28;20045;-75
2022/12/18 01:12:23;;;;;;;228.30;81.57;;;-4.50;99.90;;;;;;5049012;28;20103;-77
2022/12/18 01:14:49;;;;;;;215.50;68.73;;;-4.50;99.90;;;;;;5050482;28;20085;-74
2022/12/18 01:17:14;;;;;;;211.40;70.80;;;-4.50;99.90;;;;;;5033896;28;20123;-74
2022/12/18 01:19:40;;;;;;;216.73;70.20;;;-4.50;99.90;;;;;;5049978;28;20091;-74
2022/12/18 01:22:06;;;;;;;203.60;66.87;;;-4.50;99.90;;;;;;5049637;28;20040;-73
2022/12/18 01:24:31;;;;;;;208.83;70.03;;;-4.60;99.90;;;;;;5050387;28;20047;-74
2022/12/18 01:26:57;;;;;;;216.93;69.63;;;-4.60;99.90;;;;;;5033983;28;20083;-73
2022/12/18 01:29:23;;;;;;;200.73;61.43;;;-4.60;99.90;;;;;;5030931;28;20095;-74
2022/12/18 01:31:49;;;;;;;212.27;69.97;;;-4.70;99.90;;;;;;5049653;28;20060;-76
2022/12/18 01:34:15;;;;;;;212.63;64.20;;;-4.70;99.90;;;;;;5049006;28;20087;-75
2022/12/18 01:36:40;;;;;;;212.40;71.20;;;-4.70;99.90;;;;;;5036744;28;20080;-75
2022/12/18 01:39:10;;;;;;;206.50;65.83;;;-4.00;99.90;;;;;;5048114;28;20471;-75
2022/12/18 01:44:51;;;;;;;217.77;66.10;;;-4.70;99.90;;;;;;5049400;28;20353;-81
2022/12/18 01:47:22;;;;;;;202.97;63.63;;;-4.80;99.90;;;;;;5034541;28;20286;-75
2022/12/18 01:49:48;;;;;;;206.80;66.05;;;-4.70;99.90;;;;;;5049850;28;20280;-74
2022/12/18 01:52:15;;;;;;;211.77;66.13;;;-4.80;99.90;;;;;;5048824;28;20388;-75
2022/12/18 01:54:41;;;;;;;201.33;63.30;;;-4.90;99.90;;;;;;5048224;28;20266;-75
2022/12/18 01:57:07;;;;;;;203.10;61.80;;;-4.80;99.90;;;;;;5015802;28;20063;-75
2022/12/18 01:59:34;;;;;;;215.07;66.47;;;-4.90;99.90;;;;;;5049432;28;20135;-74
2022/12/18 02:02:01;;;;;;;202.07;60.90;;;-4.90;99.90;;;;;;5049641;28;20053;-75
2022/12/18 02:04:27;;;;;;;199.50;61.00;;;-5.00;99.90;;;;;;5031193;28;20076;-77
2022/12/18 02:07:14;;;;;;;206.40;64.37;;;-5.10;99.90;;;;;;5033368;28;20057;-76
2022/12/18 02:09:50;;;;;;;225.80;66.43;;;-5.10;99.90;;;;;;5048392;28;20287;-77
2022/12/18 02:12:25;;;;;;;199.87;59.80;;;-5.00;99.90;;;;;;5047590;28;20326;-75
2022/12/18 02:15:09;;;;;;;215.27;63.93;;;-5.20;99.90;;;;;;5048819;28;20807;-79
2022/12/18 02:17:57;;;;;;;216.30;62.47;;;-5.20;99.90;;;;;;5015133;28;20279;-76
2022/12/18 02:20:38;;;;;;;219.43;62.30;;;-5.20;99.90;;;;;;5048676;28;20745;-76
2022/12/18 02:23:15;;;;;;;182.48;52.17;;;-5.30;99.90;;;;;;5047681;28;20294;-76
2022/12/18 02:26:06;;;;;;;214.13;63.83;;;-5.30;99.90;;;;;;5049484;28;20041;-75
2022/12/18 02:28:39;;;;;;;204.87;57.83;;;-5.30;99.90;;;;;;5039436;28;20291;-75
2022/12/18 02:31:10;;;;;;;188.57;56.67;;;-5.40;99.90;;;;;;5048054;28;20330;-75
2022/12/18 02:33:37;;;;;;;199.63;60.45;;;-5.40;99.90;;;;;;5048517;28;20283;-75
2022/12/18 02:36:05;;;;;;;195.67;58.30;;;-5.40;99.90;;;;;;5048169;28;20053;-76
2022/12/18 02:38:33;;;;;;;209.23;64.07;;;-5.40;99.90;;;;;;5036897;28;20287;-77
2022/12/18 02:41:00;;;;;;;195.23;59.37;;;-5.50;99.90;;;;;;5049274;28;20283;-76
2022/12/18 02:43:26;;;;;;;176.73;58.80;;;-5.50;99.90;;;;;;5030425;28;20956;-79
2022/12/18 02:45:57;;;;;;;203.57;63.77;;;-5.60;99.90;;;;;;5047894;28;20295;-82
2022/12/18 02:48:32;;;;;;;206.37;64.63;;;-5.60;99.90;;;;;;5033709;28;20052;-75
2022/12/18 02:51:14;;;;;;;208.43;62.43;;;-5.60;99.90;;;;;;5049410;28;20307;-77
2022/12/18 02:53:49;;;;;;;213.70;68.90;;;-5.60;99.90;;;;;;5048145;28;20391;-76
2022/12/18 02:56:30;;;;;;;208.23;67.10;;;-5.60;99.90;;;;;;5038960;28;20784;-75
2022/12/18 02:59:01;;;;;;;199.20;59.05;;;-5.60;99.90;;;;;;5046563;28;20294;-74
2022/12/18 03:01:46;;;;;;;;;;;-5.60;99.90;;;;;;5048546;28;20053;-75
2022/12/18 03:04:21;;;;;;;190.37;57.67;;;-5.70;99.90;;;;;;5047749;28;19921;-75
2022/12/18 03:06:52;;;;;;;204.50;58.67;;;-5.70;99.90;;;;;;5036165;28;20380;-77
2022/12/18 03:09:21;;;;;;;202.82;63.50;;;-5.70;99.90;;;;;;5052090;28;20429;-74
2022/12/18 03:14:41;;;;;;;195.87;57.50;;;-5.70;99.90;;;;;;5051020;28;20772;-76
2022/12/18 03:17:11;;;;;;;185.30;61.60;;;-5.80;99.90;;;;;;5036910;28;20295;-76
2022/12/18 03:19:39;;;;;;;198.60;68.13;;;-5.80;99.90;;;;;;5051452;28;20908;-75
2022/12/18 03:22:07;;;;;;;198.53;60.57;;;-5.80;99.90;;;;;;5050892;28;20298;-76
2022/12/18 03:24:33;;;;;;;180.57;60.20;;;-5.80;99.90;;;;;;5050709;28;20830;-75
2022/12/18 03:27:02;;;;;;;180.93;58.40;;;-5.90;99.90;;;;;;5019816;28;20784;-74
2022/12/18 03:29:40;;;;;;;176.77;55.33;;;-5.90;99.90;;;;;;5050295;28;20680;-75
2022/12/18 03:32:14;;;;;;;179.70;57.10;;;-5.90;99.90;;;;;;5030405;28;20310;-75
2022/12/18 03:34:42;;;;;;;180.70;59.50;;;-6.00;99.90;;;;;;5031945;28;20281;-76
2022/12/18 03:37:08;;;;;;;180.43;56.63;;;-6.10;99.90;;;;;;5037051;28;20804;-75
2022/12/18 03:39:34;;;;;;;172.30;56.53;;;-6.10;99.90;;;;;;5050727;28;20319;-76
2022/12/18 03:42:17;;;;;;;184.27;60.83;;;-6.10;99.90;;;;;;5052622;28;20275;-73
2022/12/18 03:45:05;;;;;;;172.70;55.20;;;-6.10;99.90;;;;;;5050511;28;20907;-74
2022/12/18 03:47:34;;;;;;;176.53;55.97;;;-6.20;99.90;;;;;;5034700;28;20296;-79
2022/12/18 03:50:38;;;;;;;165.47;53.53;;;-6.20;99.90;;;;;;5052032;28;20291;-76
2022/12/18 03:53:12;;;;;;;174.70;52.97;;;-6.20;99.90;;;;;;5036531;28;20303;-77
2022/12/18 03:55:39;;;;;;;172.17;52.97;;;-6.30;99.90;;;;;;5050614;28;20292;-74
2022/12/18 03:58:07;;;;;;;161.17;54.63;;;-6.30;99.90;;;;;;5033919;28;20299;-77
2022/12/18 04:00:34;;;;;;;169.23;53.73;;;-6.40;99.90;;;;;;5052061;28;20292;-74
2022/12/18 04:03:01;;;;;;;180.87;55.33;;;-6.40;99.90;;;;;;5051133;28;20286;-74
2022/12/18 04:05:28;;;;;;;186.93;57.37;;;-6.40;99.90;;;;;;5050431;28;20311;-75
2022/12/18 04:07:56;;;;;;;190.77;62.53;;;-6.40;99.90;;;;;;5034283;28;20284;-74
2022/12/18 04:10:21;;;;;;;192.90;60.67;;;-6.40;99.90;;;;;;5023462;28;20736;-79
2022/12/18 04:12:48;;;;;;;190.93;58.80;;;-6.30;99.90;;;;;;5035875;28;20394;-74
2022/12/18 04:15:14;;;;;;;179.93;57.77;;;-6.40;99.90;;;;;;5051573;28;20107;-74
2022/12/18 04:17:48;;;;;;;180.43;58.70;;;-6.40;99.90;;;;;;5016120;28;20280;-74
2022/12/18 04:20:13;;;;;;;186.90;56.53;;;-6.40;99.90;;;;;;5050561;28;20387;-74
2022/12/18 04:22:39;;;;;;;173.10;55.73;;;-6.40;99.90;;;;;;5049485;28;20371;-75
2022/12/18 04:25:05;;;;;;;178.27;58.30;;;-6.50;99.90;;;;;;5051450;28;20079;-75
2022/12/18 04:27:31;;;;;;;173.10;56.93;;;-6.50;99.90;;;;;;5035004;28;20094;-74
2022/12/18 04:29:56;;;;;;;187.80;59.27;;;-6.50;99.90;;;;;;5049434;28;20049;-74
2022/12/18 04:32:22;;;;;;;183.37;58.27;;;-6.40;99.90;;;;;;5050804;28;20496;-72
2022/12/18 04:34:48;;;;;;;192.83;65.13;;;-6.40;99.90;;;;;;5051380;28;20049;-74
2022/12/18 04:37:13;;;;;;;185.80;61.73;;;-6.40;99.90;;;;;;5034788;28;20091;-83
2022/12/18 04:39:39;;;;;;;178.90;57.93;;;-6.40;99.90;;;;;;5050390;28;20052;-73
2022/12/18 04:42:05;;;;;;;169.03;57.00;;;-6.50;99.90;;;;;;5050249;28;20041;-74
2022/12/18 04:44:30;;;;;;;170.90;61.07;;;-6.60;99.90;;;;;;5049358;28;20049;-75
2022/12/18 04:46:56;;;;;;;179.80;58.63;;;-6.50;99.90;;;;;;5035592;28;20056;-77
2022/12/18 04:49:22;;;;;;;185.47;57.13;;;-6.60;99.90;;;;;;5049709;28;20047;-76
2022/12/18 04:51:48;;;;;;;167.13;56.97;;;-6.70;99.90;;;;;;5049935;28;20041;-75
2022/12/18 04:54:13;;;;;;;164.53;58.50;;;-6.60;99.90;;;;;;5048902;28;20055;-73
2022/12/18 04:56:39;;;;;;;168.37;58.23;;;-6.60;99.90;;;;;;5036362;28;20414;-73
2022/12/18 04:59:05;;;;;;;172.13;58.77;;;-6.60;99.90;;;;;;5048626;28;20052;-74
2022/12/18 05:01:31;;;;;;;173.67;58.67;;;-6.50;99.90;;;;;;5050802;28;20505;-74
2022/12/18 05:03:56;;;;;;;173.03;59.10;;;-6.50;99.90;;;;;;5049486;28;20048;-76
2022/12/18 05:06:22;;;;;;;159.33;55.70;;;-6.50;99.90;;;;;;5038327;28;20047;-78
2022/12/18 05:08:47;;;;;;;153.60;52.83;;;-6.50;99.90;;;;;;5045429;28;20045;-76
2022/12/18 05:11:17;;;;;;;154.93;55.10;;;-6.50;99.90;;;;;;5050339;28;20051;-74
2022/12/18 05:13:44;;;;;;;154.57;54.47;;;-6.50;99.90;;;;;;5048717;28;20119;-75
2022/12/18 05:16:11;;;;;;;145.70;52.07;;;-6.50;99.90;;;;;;5050665;28;20299;-76
2022/12/18 05:18:36;;;;;;;147.37;52.83;;;-6.50;99.90;;;;;;5040721;28;20288;-72
2022/12/18 05:21:03;;;;;;;141.47;51.07;;;-6.50;99.90;;;;;;5050213;28;20364;-74
2022/12/18 05:23:29;;;;;;;147.37;52.00;;;-6.60;99.90;;;;;;5048663;28;20045;-77
2022/12/18 05:25:57;;;;;;;148.63;53.90;;;-6.60;99.90;;;;;;5048690;28;20377;-74
2022/12/18 05:28:25;;;;;;;143.53;49.80;;;-6.60;99.90;;;;;;5034465;28;20288;-75
2022/12/18 05:30:52;;;;;;;131.80;49.20;;;-6.60;99.90;;;;;;5049401;28;20761;-73
2022/12/18 05:33:19;;;;;;;137.93;51.17;;;-6.70;99.90;;;;;;5045309;28;20857;-76
2022/12/18 05:36:11;;;;;;;157.90;54.00;;;-6.80;99.90;;;;;;5022723;28;20324;-75
2022/12/18 05:38:38;;;;;;;144.90;52.05;;;-6.70;99.90;;;;;;5016186;28;20672;-73
2022/12/18 05:41:05;;;;;;;137.07;52.40;;;-6.70;99.90;;;;;;5057863;28;20127;-75
2022/12/18 05:43:33;;;;;;;143.50;51.30;;;-6.70;99.90;;;;;;5041153;28;20338;-74
2022/12/18 05:46:04;;;;;;;162.37;62.13;;;-6.80;99.90;;;;;;5048010;28;20844;-74
2022/12/18 05:48:30;;;;;;;176.57;65.32;;;-6.70;99.90;;;;;;5023125;28;20438;-74
2022/12/18 05:50:56;;;;;;;171.43;59.37;;;-6.70;99.90;;;;;;5030873;28;20136;-73
2022/12/18 05:53:21;;;;;;;164.17;60.40;;;-6.70;99.90;;;;;;5048706;28;20083;-75
2022/12/18 05:55:48;;;;;;;183.40;70.23;;;-6.70;99.90;;;;;;5031514;28;20319;-76
2022/12/18 05:58:15;;;;;;;154.27;57.57;;;-6.60;99.90;;;;;;5031893;28;20063;-74
2022/12/18 06:00:44;;;;;;;142.07;55.47;;;-6.60;99.90;;;;;;5048166;28;20363;-75
2022/12/18 06:03:12;;;;;;;142.60;51.97;;;-6.60;99.90;;;;;;5047640;28;20337;-73
2022/12/18 06:05:39;;;;;;;144.87;53.27;;;-6.60;99.90;;;;;;5049909;28;20318;-74
2022/12/18 06:08:05;;;;;;;137.60;51.53;;;-6.50;99.90;;;;;;5032107;28;20315;-74
2022/12/18 06:10:31;;;;;;;135.17;50.43;;;-5.80;99.90;;;;;;5048259;28;20303;-74
2022/12/18 06:12:56;;;;;;;131.30;50.87;;;-6.50;99.90;;;;;;5047345;28;20083;-73
2022/12/18 06:15:22;;;;;;;136.67;48.90;;;-6.50;99.90;;;;;;5049683;28;20107;-74
2022/12/18 06:17:48;;;;;;;122.47;45.10;;;-6.50;99.90;;;;;;5026431;28;20053;-75
2022/12/18 06:20:13;;;;;;;120.43;48.03;;;-6.50;99.90;;;;;;5028269;28;20450;-74
2022/12/18 06:22:39;;;;;;;113.87;46.03;;;-6.50;99.90;;;;;;5040842;28;20053;-75
2022/12/18 06:25:05;;;;;;;121.83;45.90;;;-6.50;99.90;;;;;;5035863;28;20491;-75
2022/12/18 06:27:33;;;;;;;118.60;45.30;;;-6.50;99.90;;;;;;5014251;28;20076;-73
2022/12/18 06:29:59;;;;;;;108.03;43.70;;;-6.50;99.90;;;;;;5048118;28;20276;-74
2022/12/18 06:32:25;;;;;;;123.30;45.10;;;-6.60;99.90;;;;;;5047088;28;20381;-74
2022/12/18 06:34:51;;;;;;;104.30;41.33;;;-6.60;99.90;;;;;;5047723;28;20748;-74
2022/12/18 06:37:17;;;;;;;116.47;41.83;;;-6.70;99.90;;;;;;5016171;28;20045;-74
2022/12/18 06:39:42;;;;;;;117.70;41.23;;;-6.80;99.90;;;;;;5049490;28;20505;-75
2022/12/18 06:42:08;;;;;;;107.13;40.03;;;-6.90;99.90;;;;;;5052683;28;20284;-76
2022/12/18 06:44:34;;;;;;;114.67;42.80;;;-7.00;99.90;;;;;;5053394;28;20384;-76
2022/12/18 06:46:59;;;;;;;123.50;44.70;;;-7.00;99.90;;;;;;5038086;28;20041;-77
2022/12/18 06:49:25;;;;;;;113.50;42.90;;;-6.90;99.90;;;;;;5050530;28;20060;-74
2022/12/18 06:51:51;;;;;;;112.23;42.73;;;-6.80;99.90;;;;;;5053073;28;20053;-74
2022/12/18 06:54:17;;;;;;;111.77;42.90;;;-6.90;99.90;;;;;;5051230;28;20114;-74
2022/12/18 06:56:45;;;;;;;107.83;40.27;;;-6.90;99.90;;;;;;5037561;28;20390;-83
2022/12/18 06:59:12;;;;;;;118.50;42.77;;;-6.50;99.90;;;;;;5051989;28;20055;-73
2022/12/18 07:01:38;;;;;;;103.27;41.80;;;-6.90;99.90;;;;;;5052817;28;20294;-74
2022/12/18 07:04:03;;;;;;;111.87;41.90;;;-6.90;99.90;;;;;;5050660;28;20280;-73
2022/12/18 07:06:29;;;;;;;109.07;40.97;;;-7.00;99.90;;;;;;5040689;28;20090;-80
2022/12/18 07:08:55;;;;;;;107.70;38.43;;;-6.10;99.90;;;;;;5050429;28;20075;-75
2022/12/18 07:11:21;;;;;;;101.97;38.60;;;-7.10;99.90;;;;;;5034004;28;20521;-73
2022/12/18 07:13:47;;;;;;;98.50;37.63;;;-7.20;99.90;;;;;;5045965;28;20524;-77
2022/12/18 07:16:15;;;;;;;96.90;36.97;;;-7.30;99.90;;;;;;5043452;28;20426;-83
2022/12/18 07:18:41;;;;;;;92.70;35.77;;;-7.30;99.90;;;;;;5044470;28;20049;-74
2022/12/18 07:21:11;;;;;;;102.63;38.20;;;-7.30;99.90;;;;;;5051516;28;20283;-73
2022/12/18 07:23:37;;;;;;;89.97;36.23;;;-7.40;99.90;;;;;;5050309;28;20052;-77
2022/12/18 07:26:12;;;;;;;97.50;37.87;;;-7.40;99.90;;;;;;5042184;28;20387;-80
2022/12/18 07:28:39;;;;;;;90.73;35.23;;;-7.40;99.90;;;;;;5029898;28;20128;-74
2022/12/18 07:31:17;;;;;;;86.77;34.93;;;-7.30;99.90;;;;;;5051557;28;20276;-74
2022/12/18 07:33:44;;;;;;;90.23;35.87;;;-7.30;99.90;;;;;;5050323;28;20288;-74
2022/12/18 07:36:10;;;;;;;98.87;36.33;;;-7.40;99.90;;;;;;5043455;28;20715;-76
2022/12/18 07:38:37;;;;;;;93.63;36.03;;;-7.30;99.90;;;;;;5031173;28;20497;-73
2022/12/18 07:41:07;;;;;;;94.83;36.00;;;-7.30;99.90;;;;;;5031916;28;20048;-74
2022/12/18 07:43:34;;;;;;;101.13;36.95;;;-7.20;99.90;;;;;;5029166;28;20296;-74
2022/12/18 07:46:00;;;;;;;85.93;36.53;;;-7.20;99.90;;;;;;5032029;28;20045;-77
2022/12/18 07:48:26;;;;;;;86.50;35.17;;;-7.20;99.90;;;;;;5014819;28;20616;-74
2022/12/18 07:50:52;;;;;;;94.57;35.53;;;-7.10;99.90;;;;;;5033081;28;20295;-74
2022/12/18 07:53:17;;;;;;;83.27;33.10;;;-7.20;99.90;;;;;;5027719;28;20135;-76
2022/12/18 07:55:43;;;;;;;81.77;35.37;;;-7.10;99.90;;;;;;5034706;28;20487;-75
2022/12/18 07:58:09;;;;;;;86.67;35.10;;;-7.00;99.90;;;;;;5017512;28;20050;-75
2022/12/18 08:00:35;;;;;;;77.60;35.33;;;-6.80;99.90;;;;;;5033303;28;20444;-74
2022/12/18 08:03:01;;;;;;;81.47;35.03;;;-6.70;99.90;;;;;;5033156;28;20100;-79
2022/12/18 08:05:27;;;;;;;75.37;32.00;;;-6.60;99.90;;;;;;5033338;28;20307;-74
2022/12/18 08:07:54;;;;;;;77.20;31.70;;;-6.60;99.90;;;;;;4997094;28;20551;-75
2022/12/18 08:10:20;;;;;;;75.23;31.07;;;-6.40;99.90;;;;;;5034996;28;20268;-75
2022/12/18 08:12:48;;;;;;;74.37;31.47;;;-6.40;99.90;;;;;;5029109;28;20292;-76
2022/12/18 08:15:14;;;;;;;70.07;29.63;;;-6.50;99.90;;;;;;5030619;28;20276;-75
2022/12/18 08:17:39;;;;;;;72.30;31.50;;;-6.50;99.90;;;;;;5012930;28;20414;-75
2022/12/18 08:20:06;;;;;;;70.77;29.97;;;-6.60;99.90;;;;;;5029197;28;20517;-77
2022/12/18 08:22:34;;;;;;;63.27;28.77;;;-6.60;99.90;;;;;;5031290;28;20053;-74
2022/12/18 08:24:59;;;;;;;68.37;29.93;;;-6.60;99.90;;;;;;5036751;28;20314;-75
2022/12/18 08:27:25;;;;;;;68.00;30.07;;;-6.70;99.90;;;;;;5012713;28;20296;-76
2022/12/18 08:29:51;;;;;;;71.27;29.87;;;-6.70;99.90;;;;;;5030236;28;20163;-76
2022/12/18 08:32:16;;;;;;;70.33;30.90;;;-6.70;99.90;;;;;;5029727;28;20194;-75
2022/12/18 08:34:42;;;;;;;67.57;29.53;;;-6.60;99.90;;;;;;5033714;28;20051;-78
2022/12/18 08:37:08;;;;;;;65.80;30.20;;;-6.60;99.90;;;;;;5014545;28;20084;-75
2022/12/18 08:39:34;;;;;;;63.53;28.60;;;-6.60;99.90;;;;;;5029987;28;20045;-75
2022/12/18 08:44:44;;;;;;;60.97;28.93;;;-6.50;99.90;;;;;;5031987;28;20351;-76
2022/12/18 08:47:09;;;;;;;64.43;29.33;;;-6.50;99.90;;;;;;5013999;28;20799;-74
2022/12/18 08:49:35;;;;;;;61.13;29.33;;;-6.50;99.90;;;;;;5028898;28;20059;-74
2022/12/18 08:52:02;;;;;;;61.60;29.17;;;-6.40;99.90;;;;;;5045562;28;20048;-76
2022/12/18 08:54:28;;;;;;;65.17;29.77;;;-6.30;99.90;;;;;;5047359;28;20163;-78
2022/12/18 08:56:54;;;;;;;67.47;30.07;;;-6.20;99.90;;;;;;5021174;28;20304;-75
2022/12/18 08:59:20;;;;;;;65.27;29.87;;;-6.10;99.90;;;;;;5029969;28;20662;-75
2022/12/18 09:01:46;;;;;;;67.87;30.07;;;-6.10;99.90;;;;;;5035994;28;20060;-78
2022/12/18 09:04:13;;;;;;;61.77;29.20;;;-6.00;99.90;;;;;;5048413;28;20524;-75
2022/12/18 09:06:39;;;;;;;64.47;29.87;;;-5.90;99.90;;;;;;5030997;28;20283;-75
2022/12/18 09:09:06;;;;;;;62.90;29.77;;;-5.90;99.90;;;;;;5047211;28;20587;-79
2022/12/18 09:11:33;;;;;;;68.13;29.47;;;-5.80;99.90;;;;;;5047361;28;20777;-77
2022/12/18 09:14:00;;;;;;;67.20;29.80;;;-5.80;99.90;;;;;;5047608;28;20289;-77
2022/12/18 09:16:27;;;;;;;61.57;30.13;;;-5.70;99.90;;;;;;5043002;28;21007;-75
2022/12/18 09:18:59;;;;;;;62.03;28.43;;;-5.70;99.90;;;;;;5024567;28;20985;-75
2022/12/18 09:21:26;;;;;;;60.15;29.35;;;-5.60;99.90;;;;;;5050678;28;20649;-75
2022/12/18 09:23:53;;;;;;;61.53;29.60;;;-5.50;99.90;;;;;;5048648;28;20071;-75
2022/12/18 09:26:20;;;;;;;57.93;27.63;;;-5.40;99.90;;;;;;5039400;28;20351;-75
2022/12/18 09:28:45;;;;;;;60.00;28.20;;;-5.40;99.90;;;;;;5043993;28;20306;-75
2022/12/18 09:31:14;;;;;;;52.90;26.93;;;-5.30;99.90;;;;;;5049421;28;20767;-77
2022/12/18 09:33:39;;;;;;;57.13;26.87;;;-5.10;99.90;;;;;;5047703;28;20388;-75
2022/12/18 09:36:09;;;;;;;55.47;28.30;;;-5.00;99.90;;;;;;5049164;28;20353;-75
2022/12/18 09:38:35;;;;;;;54.07;25.67;;;-5.50;99.90;;;;;;5039465;28;20094;-76
2022/12/18 09:41:25;;;;;;;52.53;27.53;;;-4.00;99.90;;;;;;5050092;28;20279;-76
2022/12/18 09:43:55;;;;;;;51.77;26.27;;;-4.70;99.90;;;;;;5049851;28;20048;-77
2022/12/18 09:46:29;;;;;;;47.47;26.23;;;-4.60;99.90;;;;;;5038817;28;20280;-75
2022/12/18 09:48:58;;;;;;;48.83;27.00;;;-4.50;99.90;;;;;;5035678;28;20650;-76
2022/12/18 09:51:34;;;;;;;47.67;24.83;;;-4.50;99.90;;;;;;5029267;28;20290;-76
2022/12/18 09:54:11;;;;;;;45.23;24.53;;;-4.50;99.90;;;;;;5043685;28;20290;-78
2022/12/18 09:56:41;;;;;;;43.47;22.87;;;-4.60;99.90;;;;;;5018133;28;20898;-76
2022/12/18 09:59:35;;;;;;;47.53;24.17;;;-4.60;99.90;;;;;;5045584;28;20291;-78
2022/12/18 10:02:30;;;;;;;46.00;24.93;;;-4.60;99.90;;;;;;5048442;28;20440;-75
2022/12/18 10:05:11;;;;;;;43.90;23.33;;;-4.60;99.90;;;;;;5047889;28;20276;-76
2022/12/18 10:07:42;;;;;;;38.83;20.88;;;-4.50;99.90;;;;;;5033595;28;20037;-75
2022/12/18 10:10:35;;;;;;;40.92;22.02;;;-4.50;99.90;;;;;;5048938;28;20052;-75
2022/12/18 10:13:25;;;;;;;43.07;21.80;;;-4.20;99.90;;;;;;5048682;28;20422;-76
2022/12/18 10:15:51;;;;;;;40.30;22.10;;;-3.70;99.90;;;;;;5043994;28;20287;-76
2022/12/18 10:18:53;;;;;;;42.93;22.83;;;-3.10;99.90;;;;;;5032443;28;20256;-76
2022/12/18 10:21:38;;;;;;;37.43;20.70;;;-2.40;99.90;;;;;;5048879;28;20057;-76
2022/12/18 10:24:20;;;;;;;33.83;18.37;;;-1.70;99.90;;;;;;5037928;28;20044;-77
2022/12/18 10:26:47;;;;;;;33.40;18.43;;;-0.90;99.90;;;;;;5033446;28;20132;-76
2022/12/18 10:29:16;;;;;;;28.23;17.57;;;-1.30;99.90;;;;;;5030619;28;20076;-79
2022/12/18 10:31:41;;;;;;;29.83;18.50;;;-1.70;99.90;;;;;;5049849;28;20044;-76
2022/12/18 10:34:13;;;;;;;33.83;18.87;;;-2.10;99.90;;;;;;5048776;28;20069;-76
2022/12/18 10:36:39;;;;;;;34.43;17.23;;;-2.50;99.90;;;;;;5034909;28;20044;-76
2022/12/18 10:39:22;;;;;;;31.43;17.33;;;-2.70;99.90;;;;;;5046699;28;20049;-76
2022/12/18 10:41:48;;;;;;;34.07;17.90;;;-3.00;99.90;;;;;;5048289;28;20060;-76
2022/12/18 10:44:25;;;;;;;32.70;17.53;;;-3.10;99.90;;;;;;5048372;28;20410;-75
2022/12/18 10:47:02;;;;;;;33.30;17.33;;;-3.20;99.90;;;;;;5033904;28;20139;-77
2022/12/18 10:49:30;;;;;;;31.90;18.57;;;-3.20;99.90;;;;;;5046632;28;20045;-76
2022/12/18 10:52:16;;;;;;;32.77;18.43;;;-3.40;99.90;;;;;;5048636;28;20115;-76
2022/12/18 10:55:04;;;;;;;31.17;17.37;;;-3.50;99.90;;;;;;5029467;28;20045;-76
2022/12/18 10:57:31;;;;;;;30.90;17.43;;;-3.50;99.90;;;;;;5030378;28;20069;-79
2022/12/18 10:59:58;;;;;;;30.40;18.57;;;-3.50;99.90;;;;;;5048947;28;20739;-75
2022/12/18 11:02:36;;;;;;;31.57;18.43;;;-3.40;99.90;;;;;;5049079;28;20057;-78
2022/12/18 11:05:03;;;;;;;29.13;16.67;;;-3.40;99.90;;;;;;5047732;28;20406;-77
2022/12/18 11:07:50;;;;;;;30.30;17.40;;;-3.40;99.90;;;;;;5015230;28;20052;-77
2022/12/18 11:10:21;;;;;;;26.13;16.43;;;-3.30;99.90;;;;;;5048236;28;20060;-76
2022/12/18 11:12:48;;;;;;;27.27;16.58;;;-3.30;99.90;;;;;;5047074;28;20119;-77
2022/12/18 11:15:21;;;;;;;25.33;14.23;;;-3.30;99.90;;;;;;5049565;28;20449;-76
2022/12/18 11:17:49;;;;;;;25.33;13.80;;;-3.30;99.90;;;;;;5032553;28;20120;-77
2022/12/18 11:20:31;;;;;;;24.47;14.30;;;-3.30;99.90;;;;;;5049434;28;20072;-76
2022/12/18 11:23:05;;;;;;;21.27;13.13;;;-3.20;99.90;;;;;;5048352;28;20041;-76
2022/12/18 11:25:33;;;;;;;23.27;13.17;;;-3.20;99.90;;;;;;5047554;28;20048;-80
2022/12/18 11:28:19;;;;;;;20.97;12.47;;;-3.20;99.90;;;;;;5035703;28;20057;-77
2022/12/18 11:30:47;;;;;;;22.33;11.87;;;-3.10;99.90;;;;;;5052632;28;20067;-77
2022/12/18 11:33:19;;;;;;;18.47;11.87;;;-3.10;99.90;;;;;;5051959;28;20048;-76
2022/12/18 11:35:53;;;;;;;21.57;13.47;;;-3.10;99.90;;;;;;5051345;28;20111;-76
2022/12/18 11:38:29;;;;;;;19.70;12.80;;;-3.00;99.90;;;;;;5018587;28;20364;-78
2022/12/18 11:41:20;;;;;;;21.40;13.03;;;-2.90;99.90;;;;;;5052048;28;20111;-77
2022/12/18 11:44:02;;;;;;;;;;;-2.90;99.90;;;;;;5043112;28;20049;-77
2022/12/18 11:46:36;;;;;;;21.08;11.95;;;-2.90;99.90;;;;;;5039885;28;20393;-78
2022/12/18 11:49:24;;;;;;;19.40;11.43;;;-2.90;99.90;;;;;;5031843;28;20044;-77
2022/12/18 11:52:14;;;;;;;21.47;11.20;;;-2.80;99.90;;;;;;5048269;28;20068;-76
2022/12/18 11:54:40;;;;;;;18.40;11.17;;;-2.80;99.90;;;;;;5032979;28;20105;-76
2022/12/18 11:57:22;;;;;;;19.67;11.63;;;-2.80;99.90;;;;;;5036481;28;20136;-76
2022/12/18 12:00:09;;;;;;;20.67;11.30;;;-2.80;99.90;;;;;;5051159;28;20552;-76
2022/12/18 12:03:07;;;;;;;19.43;11.30;;;-2.80;99.90;;;;;;5050116;28;20379;-77
2022/12/18 12:05:46;;;;;;;16.10;10.40;;;-2.80;99.90;;;;;;5050414;28;20055;-76
2022/12/18 12:08:24;;;;;;;16.57;10.80;;;-2.80;99.90;;;;;;5034424;28;20064;-81
2022/12/18 12:11:16;;;;;;;16.37;10.43;;;-2.80;99.90;;;;;;5050821;28;20053;-78
2022/12/18 12:14:12;;;;;;;16.20;10.00;;;-2.70;99.90;;;;;;5051042;28;20053;-75
2022/12/18 12:16:50;;;;;;;18.50;11.10;;;-2.70;99.90;;;;;;5037754;28;20080;-77
2022/12/18 12:19:45;;;;;;;16.10;10.53;;;-2.60;99.90;;;;;;5048943;28;20501;-82
2022/12/18 12:22:23;;;;;;;15.60;9.63;;;-2.60;99.90;;;;;;5050913;28;20102;-76
2022/12/18 12:25:17;;;;;;;13.93;9.10;;;-2.50;99.90;;;;;;5051479;28;20080;-78
2022/12/18 12:28:06;;;;;;;13.37;9.07;;;-2.50;99.90;;;;;;5035591;28;20481;-78
2022/12/18 12:31:14;;;;;;;15.00;8.60;;;-2.50;99.90;;;;;;5050791;28;20064;-78
2022/12/18 12:34:11;;;;;;;14.47;9.07;;;-2.40;99.90;;;;;;5049469;28;20044;-76
2022/12/18 12:37:15;;;;;;;11.33;8.30;;;-2.40;99.90;;;;;;5036515;28;20432;-76
2022/12/18 12:39:44;;;;;;;15.57;9.27;;;-2.30;99.90;;;;;;5037463;28;20414;-74
2022/12/18 12:45:36;;;;;;;17.05;9.18;;;-2.20;99.90;;;;;;5050963;28;20099;-78
2022/12/18 12:48:04;;;;;;;13.60;8.20;;;-2.20;99.90;;;;;;5033429;28;20382;-78
2022/12/18 12:50:34;;;;;;;13.63;8.20;;;-2.10;99.90;;;;;;5050065;28;20053;-76
2022/12/18 12:53:06;;;;;;;12.07;7.80;;;-2.10;99.90;;;;;;5049593;28;20045;-76